createdAt,value
2022-08-07T00:00:15.384Z,20.10
2022-08-07T00:02:45.700Z,20.10
2022-08-07T00:05:14.888Z,20.10
2022-08-07T00:07:41.812Z,20.00
2022-08-07T00:10:26.558Z,20.00
2022-08-07T00:12:59.901Z,19.90
2022-08-07T00:15:37.955Z,19.80
2022-08-07T00:18:19.667Z,19.80
2022-08-07T00:20:57.384Z,19.80
2022-08-07T00:23:28.546Z,19.80
2022-08-07T00:26:12.835Z,19.80
2022-08-07T00:28:55.474Z,19.80
2022-08-07T00:31:26.132Z,19.80
2022-08-07T00:34:08.850Z,19.80
2022-08-07T00:36:38.757Z,19.70
2022-08-07T00:39:16.116Z,19.60
2022-08-07T00:42:02.181Z,19.60
2022-08-07T00:44:38.203Z,19.60
2022-08-07T00:47:16.090Z,19.60
2022-08-07T00:50:21.093Z,19.60
2022-08-07T00:52:47.472Z,19.60
2022-08-07T00:55:17.454Z,19.50
2022-08-07T00:57:55.707Z,19.50
2022-08-07T01:00:23.555Z,19.50
2022-08-07T01:02:50.818Z,19.40
2022-08-07T01:05:19.989Z,19.40
2022-08-07T01:07:51.573Z,19.40
2022-08-07T01:10:21.045Z,19.40
2022-08-07T01:12:54.024Z,19.30
2022-08-07T01:15:35.738Z,19.40
2022-08-07T01:18:11.097Z,19.30
2022-08-07T01:20:58.442Z,19.30
2022-08-07T01:23:38.767Z,19.30
2022-08-07T01:26:11.971Z,19.20
2022-08-07T01:28:41.736Z,19.20
2022-08-07T01:31:15.350Z,19.10
2022-08-07T01:33:55.906Z,19.10
2022-08-07T01:36:33.783Z,19.10
2022-08-07T01:39:10.036Z,19.10
2022-08-07T01:41:39.040Z,19.10
2022-08-07T01:44:11.292Z,19.10
2022-08-07T01:46:43.114Z,19.00
2022-08-07T01:49:11.791Z,19.10
2022-08-07T01:52:03.096Z,19.10
2022-08-07T01:54:37.007Z,19.10
2022-08-07T01:57:24.292Z,19.00
2022-08-07T01:59:57.178Z,19.00
2022-08-07T02:03:12.247Z,19.00
2022-08-07T02:05:43.446Z,19.00
2022-08-07T02:08:19.333Z,18.90
2022-08-07T02:10:57.967Z,18.90
2022-08-07T02:13:57.512Z,18.80
2022-08-07T02:16:16.073Z,18.80
2022-08-07T02:18:46.915Z,18.80
2022-08-07T02:21:18.202Z,18.80
2022-08-07T02:23:46.014Z,18.80
2022-08-07T02:26:33.875Z,18.70
2022-08-07T02:29:05.168Z,18.70
2022-08-07T02:31:41.015Z,18.60
2022-08-07T02:34:11.602Z,18.60
2022-08-07T02:36:46.009Z,18.60
2022-08-07T02:39:16.128Z,18.60
2022-08-07T02:41:47.254Z,18.60
2022-08-07T02:44:18.529Z,18.60
2022-08-07T02:46:52.910Z,18.60
2022-08-07T02:49:28.655Z,18.50
2022-08-07T02:52:16.134Z,18.50
2022-08-07T02:54:50.511Z,18.50
2022-08-07T02:57:23.414Z,18.40
2022-08-07T03:00:01.243Z,18.40
2022-08-07T03:02:31.914Z,18.40
2022-08-07T03:05:05.147Z,18.40
2022-08-07T03:07:43.317Z,18.40
2022-08-07T03:10:23.527Z,18.30
2022-08-07T03:12:52.030Z,18.30
2022-08-07T03:15:28.037Z,18.20
2022-08-07T03:18:06.494Z,18.20
2022-08-07T03:20:37.235Z,18.20
2022-08-07T03:23:04.847Z,18.20
2022-08-07T03:25:46.641Z,18.20
2022-08-07T03:28:37.533Z,18.20
2022-08-07T03:31:26.252Z,18.10
2022-08-07T03:34:18.747Z,18.10
2022-08-07T03:36:52.867Z,18.10
2022-08-07T03:39:46.509Z,18.00
2022-08-07T03:42:08.049Z,18.00
2022-08-07T03:44:37.492Z,18.00
2022-08-07T03:47:11.166Z,18.00
2022-08-07T03:49:47.662Z,17.90
2022-08-07T03:52:27.043Z,17.90
2022-08-07T03:55:06.593Z,17.80
2022-08-07T03:58:32.693Z,17.80
2022-08-07T04:00:29.348Z,17.70
2022-08-07T04:03:04.071Z,17.80
2022-08-07T04:05:40.304Z,17.70
2022-08-07T04:08:11.767Z,17.80
2022-08-07T04:10:42.851Z,17.80
2022-08-07T04:13:23.035Z,17.70
2022-08-07T04:15:54.631Z,17.70
2022-08-07T04:18:58.180Z,17.70
2022-08-07T04:21:10.690Z,17.80
2022-08-07T04:23:43.628Z,17.70
2022-08-07T04:26:28.578Z,17.60
2022-08-07T04:28:55.567Z,17.70
2022-08-07T04:31:38.700Z,17.70
2022-08-07T04:34:16.409Z,17.70
2022-08-07T04:36:49.464Z,17.60
2022-08-07T04:39:17.834Z,17.60
2022-08-07T04:41:50.911Z,17.60
2022-08-07T04:44:19.102Z,17.50
2022-08-07T04:47:23.648Z,17.60
2022-08-07T04:50:12.213Z,17.50
2022-08-07T04:52:59.438Z,17.50
2022-08-07T04:58:07.360Z,17.50
2022-08-07T04:59:18.398Z,17.50
2022-08-07T05:01:45.079Z,17.60
2022-08-07T05:04:18.444Z,17.60
2022-08-07T05:07:19.839Z,17.60
2022-08-07T05:10:07.683Z,17.60
2022-08-07T05:12:54.397Z,17.70
2022-08-07T05:15:26.940Z,17.70
2022-08-07T05:18:09.131Z,17.80
2022-08-07T05:20:48.238Z,17.70
2022-08-07T05:23:40.056Z,17.80
2022-08-07T05:26:18.846Z,17.80
2022-08-07T05:28:55.675Z,17.90
2022-08-07T05:31:35.095Z,17.90
2022-08-07T05:34:05.554Z,17.90
2022-08-07T05:36:43.409Z,17.90
2022-08-07T05:40:05.632Z,18.00
2022-08-07T05:42:06.434Z,18.00
2022-08-07T05:44:41.625Z,18.00
2022-08-07T05:47:18.784Z,18.10
2022-08-07T05:49:51.123Z,18.10
2022-08-07T05:52:32.381Z,18.20
2022-08-07T05:55:06.797Z,18.20
2022-08-07T05:57:42.111Z,18.20
2022-08-07T06:00:16.512Z,18.30
2022-08-07T06:02:47.690Z,18.30
2022-08-07T06:05:18.148Z,18.30
2022-08-07T06:08:29.238Z,18.30
2022-08-07T06:10:35.031Z,18.40
2022-08-07T06:13:04.946Z,18.40
2022-08-07T06:15:39.055Z,18.50
2022-08-07T06:18:12.313Z,18.50
2022-08-07T06:20:50.887Z,18.60
2022-08-07T06:24:36.799Z,18.70
2022-08-07T06:26:19.413Z,18.70
2022-08-07T06:28:54.554Z,18.80
2022-08-07T06:31:24.113Z,18.90
2022-08-07T06:34:08.278Z,18.90
2022-08-07T06:36:36.570Z,19.00
2022-08-07T06:40:17.802Z,19.00
2022-08-07T06:42:01.666Z,19.10
2022-08-07T06:44:36.882Z,19.20
2022-08-07T06:47:12.684Z,19.30
2022-08-07T06:49:51.612Z,19.30
2022-08-07T06:52:31.852Z,19.40
2022-08-07T06:55:33.327Z,19.40
2022-08-07T06:58:13.813Z,19.50
2022-08-07T07:00:45.074Z,19.60
2022-08-07T07:03:14.555Z,19.70
2022-08-07T07:06:04.151Z,19.80
2022-08-07T07:08:33.209Z,19.90
2022-08-07T07:11:14.088Z,20.00
2022-08-07T07:13:57.921Z,20.10
2022-08-07T07:16:33.952Z,20.20
2022-08-07T07:19:37.306Z,20.30
2022-08-07T07:22:11.932Z,20.40
2022-08-07T07:25:02.584Z,20.40
2022-08-07T07:27:35.561Z,20.60
2022-08-07T07:30:38.031Z,20.70
2022-08-07T07:33:11.872Z,20.70
2022-08-07T07:35:51.876Z,20.70
2022-08-07T07:38:30.455Z,20.80
2022-08-07T07:41:04.041Z,20.90
2022-08-07T07:44:13.841Z,21.00
2022-08-07T07:46:37.766Z,21.20
2022-08-07T07:50:33.160Z,21.30
2022-08-07T07:52:02.256Z,21.40
2022-08-07T07:54:31.975Z,21.60
2022-08-07T07:57:03.317Z,21.60
2022-08-07T07:59:51.564Z,21.80
2022-08-07T08:02:22.666Z,21.90
2022-08-07T08:05:05.145Z,21.90
2022-08-07T08:07:35.781Z,22.00
2022-08-07T08:10:14.927Z,22.10
2022-08-07T08:13:00.610Z,22.20
2022-08-07T08:15:57.467Z,22.20
2022-08-07T08:18:24.329Z,22.30
2022-08-07T08:20:52.538Z,22.30
2022-08-07T08:23:39.879Z,22.10
2022-08-07T08:26:26.776Z,22.20
2022-08-07T08:28:57.255Z,22.40
2022-08-07T08:32:17.326Z,22.60
2022-08-07T08:34:28.952Z,22.70
2022-08-07T08:36:58.339Z,22.90
2022-08-07T08:39:39.100Z,23.10
2022-08-07T08:42:26.016Z,23.20
2022-08-07T08:45:19.584Z,23.40
2022-08-07T08:47:55.874Z,23.50
2022-08-07T08:50:28.407Z,23.60
2022-08-07T08:53:13.845Z,23.70
2022-08-07T08:55:55.605Z,23.80
2022-08-07T08:59:24.398Z,23.80
2022-08-07T09:02:36.402Z,23.90
2022-08-07T09:05:37.313Z,24.10
2022-08-07T09:08:43.679Z,24.20
2022-08-07T09:11:24.406Z,24.40
2022-08-07T09:14:16.544Z,24.50
2022-08-07T09:17:20.507Z,24.60
2022-08-07T09:20:34.787Z,24.60
2022-08-07T09:24:30.561Z,24.60
2022-08-07T09:25:58.849Z,24.60
2022-08-07T09:30:02.337Z,24.70
2022-08-07T09:31:51.924Z,24.80
2022-08-07T09:34:31.701Z,25.00
2022-08-07T09:37:14.311Z,25.00
2022-08-07T09:39:57.946Z,24.90
2022-08-07T09:42:38.731Z,24.90
2022-08-07T09:47:24.822Z,25.10
2022-08-07T09:49:59.839Z,25.20
2022-08-07T09:52:15.299Z,25.30
2022-08-07T09:54:45.079Z,25.50
2022-08-07T09:57:32.735Z,25.40
2022-08-07T10:00:14.868Z,25.50
2022-08-07T10:03:08.329Z,25.70
2022-08-07T10:06:24.387Z,25.80
2022-08-07T10:09:18.131Z,26.10
2022-08-07T10:12:33.563Z,26.30
2022-08-07T10:15:18.520Z,26.60
2022-08-07T10:18:16.642Z,26.60
2022-08-07T10:20:57.805Z,26.80
2022-08-07T10:24:05.312Z,26.80
2022-08-07T10:27:10.566Z,26.90
2022-08-07T10:30:06.548Z,27.00
2022-08-07T10:33:14.854Z,27.00
2022-08-07T10:35:57.118Z,27.20
2022-08-07T10:38:42.140Z,27.20
2022-08-07T10:41:51.247Z,27.30
2022-08-07T10:44:37.806Z,27.50
2022-08-07T10:47:52.854Z,27.50
2022-08-07T10:50:35.093Z,27.60
2022-08-07T10:53:21.645Z,27.30
2022-08-07T10:56:05.632Z,27.10
2022-08-07T10:58:46.188Z,27.20
2022-08-07T11:01:51.587Z,27.40
2022-08-07T11:04:59.228Z,27.60
2022-08-07T11:07:59.645Z,27.80
2022-08-07T11:10:41.633Z,27.80
2022-08-07T11:14:45.088Z,28.00
2022-08-07T11:16:19.770Z,28.00
2022-08-07T11:19:02.458Z,28.20
2022-08-07T11:21:40.734Z,28.30
2022-08-07T11:24:28.487Z,28.30
2022-08-07T11:27:13.681Z,28.30
2022-08-07T11:29:53.993Z,28.50
2022-08-07T11:32:49.720Z,28.50
2022-08-07T11:35:27.004Z,28.60
2022-08-07T11:38:17.274Z,28.70
2022-08-07T11:41:08.152Z,28.80
2022-08-07T11:44:11.186Z,28.90
2022-08-07T11:47:03.472Z,29.00
2022-08-07T11:50:30.472Z,29.10
2022-08-07T11:52:46.763Z,29.20
2022-08-07T11:56:15.705Z,29.20
2022-08-07T12:00:10.683Z,29.30
2022-08-07T12:02:31.748Z,29.30
2022-08-07T12:05:28.484Z,29.10
2022-08-07T12:08:31.716Z,29.20
2022-08-07T12:11:21.073Z,29.20
2022-08-07T12:14:01.418Z,29.40
2022-08-07T12:16:36.100Z,29.50
2022-08-07T12:19:35.606Z,29.50
2022-08-07T12:22:37.738Z,29.40
2022-08-07T12:26:00.846Z,29.50
2022-08-07T12:28:53.151Z,29.60
2022-08-07T12:32:02.503Z,29.70
2022-08-07T12:34:36.628Z,29.70
2022-08-07T12:37:08.474Z,29.50
2022-08-07T12:39:50.879Z,29.60
2022-08-07T12:42:27.277Z,29.70
2022-08-07T12:45:00.600Z,29.90
2022-08-07T12:47:56.923Z,29.90
2022-08-07T12:50:38.916Z,29.90
2022-08-07T12:54:24.011Z,29.70
2022-08-07T12:56:39.478Z,29.60
2022-08-07T12:59:08.666Z,29.60
2022-08-07T13:02:11.194Z,29.60
2022-08-07T13:05:02.670Z,29.70
2022-08-07T13:08:12.246Z,29.90
2022-08-07T13:10:54.587Z,30.00
2022-08-07T13:13:50.152Z,29.70
2022-08-07T13:16:27.640Z,29.70
2022-08-07T13:19:46.074Z,29.60
2022-08-07T13:22:27.600Z,29.60
2022-08-07T13:25:03.582Z,29.70
2022-08-07T13:28:13.990Z,29.70
2022-08-07T13:30:40.965Z,29.70
2022-08-07T13:34:34.066Z,29.70
2022-08-07T13:36:43.427Z,29.90
2022-08-07T13:40:34.368Z,30.10
2022-08-07T13:42:25.018Z,30.20
2022-08-07T13:44:55.365Z,30.30
2022-08-07T13:48:06.945Z,30.10
2022-08-07T13:50:34.183Z,30.00
2022-08-07T13:53:05.222Z,30.00
2022-08-07T13:55:36.943Z,30.10
2022-08-07T13:58:31.643Z,29.90
2022-08-07T14:01:10.674Z,29.90
2022-08-07T14:04:06.947Z,29.90
2022-08-07T14:06:38.415Z,30.00
2022-08-07T14:09:09.779Z,29.70
2022-08-07T14:12:00.467Z,29.60
2022-08-07T14:14:42.274Z,29.80
2022-08-07T14:17:51.386Z,29.90
2022-08-07T14:20:43.150Z,29.90
2022-08-07T14:23:14.467Z,29.70
2022-08-07T14:26:05.265Z,29.80
2022-08-07T14:28:57.685Z,29.80
2022-08-07T14:31:24.160Z,30.00
2022-08-07T14:33:55.609Z,30.10
2022-08-07T14:36:26.601Z,30.30
2022-08-07T14:38:55.012Z,30.30
2022-08-07T14:41:33.930Z,30.40
2022-08-07T14:44:24.232Z,30.20
2022-08-07T14:47:14.286Z,30.10
2022-08-07T14:49:56.958Z,30.10
2022-08-07T14:52:28.730Z,30.10
2022-08-07T14:54:58.781Z,30.10
2022-08-07T14:57:28.916Z,30.20
2022-08-07T15:00:30.032Z,30.30
2022-08-07T15:03:00.153Z,30.10
2022-08-07T15:05:55.155Z,29.90
2022-08-07T15:08:50.113Z,29.80
2022-08-07T15:14:22.424Z,29.90
2022-08-07T15:17:00.567Z,30.00
2022-08-07T15:22:32.903Z,30.10
2022-08-07T15:25:17.569Z,30.20
2022-08-07T15:28:32.277Z,30.20
2022-08-07T15:31:04.441Z,30.30
2022-08-07T15:33:33.656Z,30.40
2022-08-07T15:36:05.421Z,30.60
2022-08-07T15:38:59.297Z,31.10
2022-08-07T15:42:45.732Z,31.60
2022-08-07T15:44:18.891Z,32.30
2022-08-07T15:46:52.687Z,32.90
2022-08-07T15:52:30.577Z,34.20
2022-08-07T15:55:02.621Z,34.70
2022-08-07T15:57:40.322Z,35.20
2022-08-07T16:00:31.351Z,35.60
2022-08-07T16:03:20.483Z,36.00
2022-08-07T16:05:51.885Z,36.20
2022-08-07T16:08:32.106Z,36.30
2022-08-07T16:11:26.559Z,36.30
2022-08-07T16:14:06.889Z,35.90
2022-08-07T16:16:51.493Z,35.90
2022-08-07T16:20:33.329Z,35.90
2022-08-07T16:23:11.965Z,35.30
2022-08-07T16:26:32.822Z,35.10
2022-08-07T16:30:11.263Z,34.70
2022-08-07T16:32:54.298Z,34.20
2022-08-07T16:35:58.496Z,33.90
2022-08-07T16:39:01.100Z,33.80
2022-08-07T16:41:59.655Z,33.50
2022-08-07T16:45:15.265Z,33.40
2022-08-07T16:47:51.171Z,33.30
2022-08-07T16:51:07.257Z,33.00
2022-08-07T16:53:57.240Z,32.90
2022-08-07T16:57:15.498Z,32.80
2022-08-07T16:59:59.241Z,32.50
2022-08-07T17:03:06.337Z,32.30
2022-08-07T17:06:19.636Z,32.20
2022-08-07T17:10:05.165Z,32.00
2022-08-07T17:12:33.873Z,31.80
2022-08-07T17:15:04.446Z,31.80
2022-08-07T17:17:49.739Z,31.40
2022-08-07T17:20:29.863Z,31.20
2022-08-07T17:22:57.559Z,31.10
2022-08-07T17:25:51.253Z,31.00
2022-08-07T17:28:31.456Z,30.90
2022-08-07T17:31:20.889Z,30.80
2022-08-07T17:34:57.099Z,30.70
2022-08-07T17:38:08.174Z,30.50
2022-08-07T17:40:30.494Z,30.40
2022-08-07T17:43:19.020Z,30.20
2022-08-07T17:46:13.721Z,30.00
2022-08-07T17:48:59.823Z,29.80
2022-08-07T17:51:59.717Z,29.60
2022-08-07T17:54:53.589Z,29.50
2022-08-07T17:57:59.330Z,29.30
2022-08-07T18:00:34.204Z,29.20
2022-08-07T18:04:03.992Z,29.10
2022-08-07T18:06:38.140Z,28.90
2022-08-07T18:09:08.711Z,28.80
2022-08-07T18:12:20.000Z,28.60
2022-08-07T18:14:45.159Z,28.50
2022-08-07T18:18:47.362Z,28.40
2022-08-07T18:21:09.539Z,28.30
2022-08-07T18:23:50.752Z,28.20
2022-08-07T18:26:42.866Z,28.00
2022-08-07T18:30:04.317Z,27.90
2022-08-07T18:32:25.034Z,27.80
2022-08-07T18:35:17.495Z,27.60
2022-08-07T18:38:56.908Z,27.50
2022-08-07T18:41:17.131Z,27.50
2022-08-07T18:44:23.544Z,27.30
2022-08-07T18:47:06.914Z,27.20
2022-08-07T18:50:31.056Z,27.10
2022-08-07T18:52:57.878Z,27.00
2022-08-07T18:55:56.118Z,26.90
2022-08-07T18:58:51.130Z,26.90
2022-08-07T19:02:33.197Z,26.80
2022-08-07T19:05:15.073Z,26.70
2022-08-07T19:07:59.540Z,26.50
2022-08-07T19:10:49.997Z,26.40
2022-08-07T19:13:50.764Z,26.40
2022-08-07T19:17:01.327Z,26.30
2022-08-07T19:19:32.449Z,26.20
2022-08-07T19:22:31.318Z,26.10
2022-08-07T19:25:06.589Z,26.00
2022-08-07T19:28:58.449Z,25.90
2022-08-07T19:30:56.948Z,25.80
2022-08-07T19:33:34.814Z,25.80
2022-08-07T19:36:04.850Z,25.60
2022-08-07T19:38:52.646Z,25.60
2022-08-07T19:41:44.974Z,25.50
2022-08-07T19:44:31.492Z,25.50
2022-08-07T19:47:07.156Z,25.40
2022-08-07T19:49:57.193Z,25.30
2022-08-07T19:52:28.374Z,25.30
2022-08-07T19:54:58.063Z,25.20
2022-08-07T19:58:00.975Z,25.10
2022-08-07T20:00:29.748Z,25.10
2022-08-07T20:03:35.708Z,25.00
2022-08-07T20:06:28.383Z,25.00
2022-08-07T20:08:58.234Z,24.90
2022-08-07T20:12:22.849Z,24.90
2022-08-07T20:14:31.704Z,24.90
2022-08-07T20:17:01.567Z,24.80
2022-08-07T20:19:48.087Z,24.70
2022-08-07T20:22:29.279Z,24.70
2022-08-07T20:25:07.051Z,24.60
2022-08-07T20:27:51.699Z,24.60
2022-08-07T20:30:33.144Z,24.60
2022-08-07T20:33:02.654Z,24.50
2022-08-07T20:35:37.041Z,24.50
2022-08-07T20:38:23.029Z,24.40
2022-08-07T20:40:53.306Z,24.40
2022-08-07T20:43:25.750Z,24.40
2022-08-07T20:46:25.637Z,24.30
2022-08-07T20:49:00.730Z,24.30
2022-08-07T20:51:36.024Z,24.20
2022-08-07T20:54:12.078Z,24.20
2022-08-07T20:56:45.985Z,24.10
2022-08-07T21:00:05.438Z,24.10
2022-08-07T21:02:32.674Z,24.10
2022-08-07T21:05:01.735Z,24.00
2022-08-07T21:07:38.436Z,23.90
2022-08-07T21:10:11.489Z,23.80
2022-08-07T21:12:39.994Z,23.80
2022-08-07T21:15:18.523Z,23.70
2022-08-07T21:18:03.163Z,23.70
2022-08-07T21:20:35.030Z,23.60
2022-08-07T21:23:08.767Z,23.60
2022-08-07T21:26:03.274Z,23.60
2022-08-07T21:29:03.442Z,23.60
2022-08-07T21:32:42.332Z,23.60
2022-08-07T21:34:46.010Z,23.50
2022-08-07T21:37:58.580Z,23.40
2022-08-07T21:40:45.572Z,23.40
2022-08-07T21:43:56.940Z,23.40
2022-08-07T21:46:54.355Z,23.40
2022-08-07T21:50:01.099Z,23.30
2022-08-07T21:52:48.085Z,23.30
2022-08-07T21:55:28.242Z,23.30
2022-08-07T21:58:41.324Z,23.20
2022-08-07T22:02:11.340Z,23.20
2022-08-07T22:04:28.134Z,23.20
2022-08-07T22:07:03.521Z,23.20
2022-08-07T22:09:53.606Z,23.20
2022-08-07T22:12:36.760Z,23.20
2022-08-07T22:16:43.304Z,23.10
2022-08-07T22:18:13.569Z,23.10
2022-08-07T22:21:11.519Z,23.10
2022-08-07T22:23:56.966Z,23.00
2022-08-07T22:26:44.569Z,23.00
2022-08-07T22:29:33.711Z,23.00
2022-08-07T22:32:24.504Z,22.90
2022-08-07T22:34:58.213Z,23.00
2022-08-07T22:38:03.002Z,23.00
2022-08-07T22:41:09.980Z,22.90
2022-08-07T22:43:43.763Z,22.90
2022-08-07T22:47:04.071Z,22.90
2022-08-07T22:49:51.899Z,22.90
2022-08-07T22:52:55.567Z,22.90
2022-08-07T22:56:08.596Z,22.80
2022-08-07T22:59:13.795Z,22.80
2022-08-07T23:02:00.409Z,22.80
2022-08-07T23:04:56.902Z,22.70
2022-08-07T23:07:44.923Z,22.70
2022-08-07T23:10:41.251Z,22.60
2022-08-07T23:13:15.149Z,22.60
2022-08-07T23:16:06.274Z,22.60
2022-08-07T23:19:14.898Z,22.60
2022-08-07T23:22:06.486Z,22.50
2022-08-07T23:24:49.537Z,22.50
2022-08-07T23:28:22.287Z,22.50
2022-08-07T23:31:05.763Z,22.50
2022-08-07T23:34:20.917Z,22.40
2022-08-07T23:37:19.643Z,22.40
2022-08-07T23:39:47.260Z,22.40
2022-08-07T23:42:53.127Z,22.30
2022-08-07T23:46:01.841Z,22.30
2022-08-07T23:48:44.142Z,22.30
2022-08-07T23:52:58.386Z,22.30
2022-08-07T23:54:44.565Z,22.30
2022-08-07T23:57:34.951Z,22.20
